Scottish Viking — IBDZ — position and weather

sailwx.info

Track history (hours):
 
Tides and Currents Weather Stations Pressure Air Temp Water Temp Dewpoint Dewpoint Depression Visibility Wind Speed Wind Dir Waves Ship Positions

Scottish Viking

Last reported at 2016-May-31 19:12 UTC. Time now 2016-May-31 23:46 UTC.
Position N 58°33' E 018°28'.

Length 186 m; draft 6.4 m.

Type: Ship. MMSI: 247265800.

Date/timePositionNaut miles runAvg speedWind from/ knotsBaromVisibWave heightAir tempDewpointWater temp
2016-May-31 19:12N 58°33' E 018°28'913.8
2016-May-31 18:32N 58°40' E 018°17'11 0.3
2016-May-30 09:11N 58°33' E 018°31'1114.1
2016-May-30 08:27N 58°41' E 018°18'5 1.0
2016-May-30 03:25N 58°37' E 018°24'1921.8
2016-May-30 02:33N 58°23' E 018°47'  
2016-May-24 21:04N 58°16' E 019°03'2414.3
2016-May-24 19:24N 58°33' E 018°32'1514.1
2016-May-24 18:21N 58°43' E 018°12'9 0.6
2016-May-24 04:11N 58°49' E 017°60'  
Track history (hours):
 
Tides and Currents Weather Stations Pressure Air Temp Water Temp Dewpoint Dewpoint Depression Visibility Wind Speed Wind Dir Waves Ship Positions

Scottish Viking

Last reported at 2016-May-31 19:12 UTC. Time now 2016-May-31 23:46 UTC.
Position N 58°33' E 018°28'.

Length 186 m; draft 6.4 m.

Type: Ship. MMSI: 247265800.

Date/timePositionNaut miles runAvg speedWind from/ knotsBaromVisibWave heightAir tempDewpointWater temp
2016-May-31 19:12N 58°33' E 018°28'913.8
2016-May-31 18:32N 58°40' E 018°17'11 0.3
2016-May-30 09:11N 58°33' E 018°31'1114.1
2016-May-30 08:27N 58°41' E 018°18'5 1.0
2016-May-30 03:25N 58°37' E 018°24'1921.8
2016-May-30 02:33N 58°23' E 018°47'  
2016-May-24 21:04N 58°16' E 019°03'2414.3
2016-May-24 19:24N 58°33' E 018°32'1514.1
2016-May-24 18:21N 58°43' E 018°12'9 0.6
2016-May-24 04:11N 58°49' E 017°60'  

Dump ship's entire track history